sensor_id;sensor_type;location;lat;lon;timestamp;pressure;altitude;pressure_sealevel;temperature;humidity
35419;BME280;21525;41.240;16.500;2023-01-26T00:01:29;101052.84;;;15.77;90.56
35419;BME280;21525;41.240;16.500;2023-01-26T00:03:55;101042.16;;;16.12;88.32
35419;BME280;21525;41.240;16.500;2023-01-26T00:06:22;101035.25;;;16.10;88.24
35419;BME280;21525;41.240;16.500;2023-01-26T00:08:53;101034.47;;;15.46;92.19
35419;BME280;21525;41.240;16.500;2023-01-26T00:11:22;101026.06;;;15.66;91.42
35419;BME280;21525;41.240;16.500;2023-01-26T00:13:49;101025.44;;;15.87;90.37
35419;BME280;21525;41.240;16.500;2023-01-26T00:16:15;101013.38;;;15.82;89.52
35419;BME280;21525;41.240;16.500;2023-01-26T00:18:42;101017.31;;;15.95;88.19
35419;BME280;21525;41.240;16.500;2023-01-26T00:21:13;101023.44;;;15.95;89.68
35419;BME280;21525;41.240;16.500;2023-01-26T00:23:39;101031.50;;;15.89;89.58
35419;BME280;21525;41.240;16.500;2023-01-26T00:26:07;101034.13;;;15.89;89.64
35419;BME280;21525;41.240;16.500;2023-01-26T00:28:33;101028.56;;;15.70;89.83
35419;BME280;21525;41.240;16.500;2023-01-26T00:31:12;101027.53;;;15.76;90.08
35419;BME280;21525;41.240;16.500;2023-01-26T00:33:38;101031.91;;;15.75;91.26
35419;BME280;21525;41.240;16.500;2023-01-26T00:36:04;101027.53;;;15.76;89.98
35419;BME280;21525;41.240;16.500;2023-01-26T00:38:30;101028.13;;;16.13;86.79
35419;BME280;21525;41.240;16.500;2023-01-26T00:40:56;101022.81;;;15.87;87.90
35419;BME280;21525;41.240;16.500;2023-01-26T00:43:22;101019.38;;;15.85;88.33
35419;BME280;21525;41.240;16.500;2023-01-26T00:45:50;101023.44;;;15.95;88.26
35419;BME280;21525;41.240;16.500;2023-01-26T00:48:17;101028.44;;;16.03;88.00
35419;BME280;21525;41.240;16.500;2023-01-26T00:50:44;101028.97;;;15.86;88.95
35419;BME280;21525;41.240;16.500;2023-01-26T00:53:10;101017.97;;;15.42;92.70
35419;BME280;21525;41.240;16.500;2023-01-26T00:55:36;101020.22;;;15.87;90.69
35419;BME280;21525;41.240;16.500;2023-01-26T00:58:04;101016.78;;;16.13;87.79
35419;BME280;21525;41.240;16.500;2023-01-26T01:00:31;101006.84;;;16.23;89.10
35419;BME280;21525;41.240;16.500;2023-01-26T01:02:57;101002.81;;;16.39;86.65
35419;BME280;21525;41.240;16.500;2023-01-26T01:05:25;101001.97;;;15.83;87.83
35419;BME280;21525;41.240;16.500;2023-01-26T01:07:51;100991.84;;;15.98;88.71
35419;BME280;21525;41.240;16.500;2023-01-26T01:10:17;100984.25;;;16.19;89.42
35419;BME280;21525;41.240;16.500;2023-01-26T01:12:43;100988.19;;;15.76;90.14
35419;BME280;21525;41.240;16.500;2023-01-26T01:15:09;100976.19;;;15.67;89.46
35419;BME280;21525;41.240;16.500;2023-01-26T01:17:36;100971.94;;;16.21;87.84
35419;BME280;21525;41.240;16.500;2023-01-26T01:20:03;100959.09;;;16.11;86.54
35419;BME280;21525;41.240;16.500;2023-01-26T01:22:31;100958.03;;;16.17;85.92
35419;BME280;21525;41.240;16.500;2023-01-26T01:24:58;100949.25;;;16.18;87.19
35419;BME280;21525;41.240;16.500;2023-01-26T01:27:24;100949.59;;;16.07;88.73
35419;BME280;21525;41.240;16.500;2023-01-26T01:29:50;100957.69;;;16.00;86.53
35419;BME280;21525;41.240;16.500;2023-01-26T01:32:17;100951.56;;;16.27;85.42
35419;BME280;21525;41.240;16.500;2023-01-26T01:34:48;100951.84;;;16.20;85.45
35419;BME280;21525;41.240;16.500;2023-01-26T01:37:15;100943.88;;;16.23;86.02
35419;BME280;21525;41.240;16.500;2023-01-26T01:39:41;100946.31;;;16.01;86.52
35419;BME280;21525;41.240;16.500;2023-01-26T01:42:07;100941.06;;;16.54;85.10
35419;BME280;21525;41.240;16.500;2023-01-26T01:44:37;100944.47;;;15.76;89.93
35419;BME280;21525;41.240;16.500;2023-01-26T01:47:05;100937.81;;;16.21;87.21
35419;BME280;21525;41.240;16.500;2023-01-26T01:49:46;100942.59;;;15.80;88.70
35419;BME280;21525;41.240;16.500;2023-01-26T01:52:18;100934.44;;;15.89;86.01
35419;BME280;21525;41.240;16.500;2023-01-26T01:57:24;100925.06;;;16.08;85.14
35419;BME280;21525;41.240;16.500;2023-01-26T02:00:05;100916.13;;;15.88;86.36
35419;BME280;21525;41.240;16.500;2023-01-26T02:02:38;100923.84;;;15.92;86.39
35419;BME280;21525;41.240;16.500;2023-01-26T02:05:12;100934.41;;;15.91;86.15
35419;BME280;21525;41.240;16.500;2023-01-26T02:07:44;100924.00;;;15.88;85.23
35419;BME280;21525;41.240;16.500;2023-01-26T02:10:11;100919.00;;;16.33;83.45
35419;BME280;21525;41.240;16.500;2023-01-26T02:12:44;100927.41;;;15.62;85.55
35419;BME280;21525;41.240;16.500;2023-01-26T02:15:11;100919.81;;;15.82;85.29
35419;BME280;21525;41.240;16.500;2023-01-26T02:17:38;100915.16;;;15.62;86.57
35419;BME280;21525;41.240;16.500;2023-01-26T02:20:20;100910.94;;;15.58;86.62
35419;BME280;21525;41.240;16.500;2023-01-26T02:25:33;100914.81;;;15.16;91.19
35419;BME280;21525;41.240;16.500;2023-01-26T02:28:02;100893.81;;;15.45;88.07
35419;BME280;21525;41.240;16.500;2023-01-26T02:30:28;100893.09;;;15.69;86.93
35419;BME280;21525;41.240;16.500;2023-01-26T02:32:55;100904.50;;;15.39;86.38
35419;BME280;21525;41.240;16.500;2023-01-26T02:35:21;100896.25;;;15.23;88.01
35419;BME280;21525;41.240;16.500;2023-01-26T02:37:47;100898.22;;;15.44;85.75
35419;BME280;21525;41.240;16.500;2023-01-26T02:40:59;100886.09;;;15.40;85.65
35419;BME280;21525;41.240;16.500;2023-01-26T02:42:59;100886.44;;;15.28;86.80
35419;BME280;21525;41.240;16.500;2023-01-26T02:45:29;100892.50;;;15.01;87.82
35419;BME280;21525;41.240;16.500;2023-01-26T02:47:55;100892.06;;;15.16;88.00
35419;BME280;21525;41.240;16.500;2023-01-26T02:50:22;100902.31;;;14.94;89.00
35419;BME280;21525;41.240;16.500;2023-01-26T02:52:48;100906.16;;;15.12;87.52
35419;BME280;21525;41.240;16.500;2023-01-26T02:55:17;100907.06;;;15.11;87.76
35419;BME280;21525;41.240;16.500;2023-01-26T03:00:25;100902.28;;;15.25;86.36
35419;BME280;21525;41.240;16.500;2023-01-26T03:02:53;100893.75;;;15.19;87.35
35419;BME280;21525;41.240;16.500;2023-01-26T03:05:20;100891.34;;;15.40;86.11
35419;BME280;21525;41.240;16.500;2023-01-26T03:07:46;100884.84;;;15.24;85.34
35419;BME280;21525;41.240;16.500;2023-01-26T03:10:12;100877.31;;;15.13;85.71
35419;BME280;21525;41.240;16.500;2023-01-26T03:12:38;100875.31;;;15.22;85.75
35419;BME280;21525;41.240;16.500;2023-01-26T03:15:04;100882.53;;;15.13;84.91
35419;BME280;21525;41.240;16.500;2023-01-26T03:17:49;100873.81;;;15.13;84.98
35419;BME280;21525;41.240;16.500;2023-01-26T03:20:16;100873.91;;;15.39;82.97
35419;BME280;21525;41.240;16.500;2023-01-26T03:23:00;100870.47;;;15.37;82.73
35419;BME280;21525;41.240;16.500;2023-01-26T03:25:45;100868.31;;;15.22;82.20
35419;BME280;21525;41.240;16.500;2023-01-26T03:28:32;100877.72;;;15.28;82.11
35419;BME280;21525;41.240;16.500;2023-01-26T03:30:58;100883.50;;;15.11;83.58
35419;BME280;21525;41.240;16.500;2023-01-26T03:33:24;100885.47;;;15.03;83.69
35419;BME280;21525;41.240;16.500;2023-01-26T03:35:53;100885.91;;;14.88;84.57
35419;BME280;21525;41.240;16.500;2023-01-26T03:38:20;100880.88;;;15.11;82.98
35419;BME280;21525;41.240;16.500;2023-01-26T03:40:49;100860.25;;;15.28;81.75
35419;BME280;21525;41.240;16.500;2023-01-26T03:43:34;100869.31;;;14.89;83.62
35419;BME280;21525;41.240;16.500;2023-01-26T03:46:20;100867.16;;;15.01;84.43
35419;BME280;21525;41.240;16.500;2023-01-26T03:49:05;100860.16;;;15.02;83.55
35419;BME280;21525;41.240;16.500;2023-01-26T03:51:53;100856.53;;;14.76;84.85
35419;BME280;21525;41.240;16.500;2023-01-26T03:54:37;100849.09;;;14.94;83.85
35419;BME280;21525;41.240;16.500;2023-01-26T03:57:21;100853.97;;;15.04;83.31
35419;BME280;21525;41.240;16.500;2023-01-26T03:59:47;100852.81;;;15.15;81.13
35419;BME280;21525;41.240;16.500;2023-01-26T04:02:18;100848.69;;;14.76;83.57
35419;BME280;21525;41.240;16.500;2023-01-26T04:05:04;100845.13;;;14.79;83.67
35419;BME280;21525;41.240;16.500;2023-01-26T04:07:53;100834.53;;;14.53;83.97
35419;BME280;21525;41.240;16.500;2023-01-26T04:10:37;100824.81;;;14.87;83.21
35419;BME280;21525;41.240;16.500;2023-01-26T04:13:04;100833.50;;;14.89;83.75
35419;BME280;21525;41.240;16.500;2023-01-26T04:15:57;100844.84;;;14.59;85.19
35419;BME280;21525;41.240;16.500;2023-01-26T04:18:41;100861.44;;;13.53;93.65
35419;BME280;21525;41.240;16.500;2023-01-26T04:21:26;100850.91;;;14.27;89.82
35419;BME280;21525;41.240;16.500;2023-01-26T04:23:57;100847.25;;;14.65;85.30
35419;BME280;21525;41.240;16.500;2023-01-26T04:26:26;100847.91;;;14.73;84.31
35419;BME280;21525;41.240;16.500;2023-01-26T04:28:53;100847.44;;;14.90;82.85
35419;BME280;21525;41.240;16.500;2023-01-26T04:31:18;100853.19;;;14.05;89.95
35419;BME280;21525;41.240;16.500;2023-01-26T04:33:47;100832.97;;;14.76;85.58
35419;BME280;21525;41.240;16.500;2023-01-26T04:36:13;100837.28;;;14.79;83.18
35419;BME280;21525;41.240;16.500;2023-01-26T04:38:43;100845.03;;;14.51;87.75
35419;BME280;21525;41.240;16.500;2023-01-26T04:41:11;100838.78;;;14.23;89.88
35419;BME280;21525;41.240;16.500;2023-01-26T04:43:44;100841.56;;;14.82;86.56
35419;BME280;21525;41.240;16.500;2023-01-26T04:46:10;100842.38;;;14.84;84.38
35419;BME280;21525;41.240;16.500;2023-01-26T04:48:38;100837.41;;;15.04;83.82
35419;BME280;21525;41.240;16.500;2023-01-26T04:51:11;100833.25;;;15.26;82.45
35419;BME280;21525;41.240;16.500;2023-01-26T04:53:38;100829.19;;;15.16;83.07
35419;BME280;21525;41.240;16.500;2023-01-26T04:56:04;100819.44;;;15.21;82.93
35419;BME280;21525;41.240;16.500;2023-01-26T04:58:32;100817.03;;;15.41;81.79
35419;BME280;21525;41.240;16.500;2023-01-26T05:00:57;100812.94;;;15.33;81.10
35419;BME280;21525;41.240;16.500;2023-01-26T05:03:25;100811.38;;;15.27;80.90
35419;BME280;21525;41.240;16.500;2023-01-26T05:05:52;100804.22;;;15.32;80.58
35419;BME280;21525;41.240;16.500;2023-01-26T05:08:21;100804.19;;;15.34;80.31
35419;BME280;21525;41.240;16.500;2023-01-26T05:10:47;100803.44;;;15.01;81.76
35419;BME280;21525;41.240;16.500;2023-01-26T05:13:32;100795.50;;;15.04;82.81
35419;BME280;21525;41.240;16.500;2023-01-26T05:16:13;100794.13;;;15.20;82.59
35419;BME280;21525;41.240;16.500;2023-01-26T05:18:58;100788.28;;;15.12;82.08
35419;BME280;21525;41.240;16.500;2023-01-26T05:21:44;100786.91;;;14.99;82.31
35419;BME280;21525;41.240;16.500;2023-01-26T05:24:11;100780.72;;;15.01;82.09
35419;BME280;21525;41.240;16.500;2023-01-26T05:26:52;100781.41;;;15.08;81.33
35419;BME280;21525;41.240;16.500;2023-01-26T05:29:39;100778.66;;;14.54;83.33
35419;BME280;21525;41.240;16.500;2023-01-26T05:32:05;100776.44;;;14.69;82.18
35419;BME280;21525;41.240;16.500;2023-01-26T05:34:32;100775.38;;;14.76;81.30
35419;BME280;21525;41.240;16.500;2023-01-26T05:36:57;100776.44;;;14.69;81.25
35419;BME280;21525;41.240;16.500;2023-01-26T05:39:23;100768.97;;;14.57;80.74
35419;BME280;21525;41.240;16.500;2023-01-26T05:41:49;100765.53;;;14.55;80.98
35419;BME280;21525;41.240;16.500;2023-01-26T05:44:36;100760.28;;;14.55;80.67
35419;BME280;21525;41.240;16.500;2023-01-26T05:47:09;100756.91;;;14.52;81.65
35419;BME280;21525;41.240;16.500;2023-01-26T05:49:35;100750.72;;;14.54;82.43
35419;BME280;21525;41.240;16.500;2023-01-26T05:52:09;100755.22;;;14.49;80.53
35419;BME280;21525;41.240;16.500;2023-01-26T05:54:35;100758.28;;;14.32;81.40
35419;BME280;21525;41.240;16.500;2023-01-26T05:57:02;100759.94;;;14.35;82.05
35419;BME280;21525;41.240;16.500;2023-01-26T05:59:29;100764.16;;;14.40;81.71
35419;BME280;21525;41.240;16.500;2023-01-26T06:01:55;100758.13;;;14.69;80.46
35419;BME280;21525;41.240;16.500;2023-01-26T06:04:21;100761.16;;;14.56;80.12
35419;BME280;21525;41.240;16.500;2023-01-26T06:06:53;100760.84;;;14.34;81.07
35419;BME280;21525;41.240;16.500;2023-01-26T06:09:25;100763.22;;;14.74;80.39
35419;BME280;21525;41.240;16.500;2023-01-26T06:12:15;100763.53;;;14.63;80.11
35419;BME280;21525;41.240;16.500;2023-01-26T06:14:56;100760.78;;;14.68;80.18
35419;BME280;21525;41.240;16.500;2023-01-26T06:17:30;100763.00;;;14.82;80.41
35419;BME280;21525;41.240;16.500;2023-01-26T06:19:58;100765.44;;;14.58;81.11
35419;BME280;21525;41.240;16.500;2023-01-26T06:22:24;100757.44;;;14.63;81.26
35419;BME280;21525;41.240;16.500;2023-01-26T06:24:51;100771.44;;;14.62;81.36
35419;BME280;21525;41.240;16.500;2023-01-26T06:27:17;100768.06;;;14.58;81.17
35419;BME280;21525;41.240;16.500;2023-01-26T06:29:46;100779.31;;;14.62;81.49
35419;BME280;21525;41.240;16.500;2023-01-26T06:32:13;100792.75;;;14.16;86.85
35419;BME280;21525;41.240;16.500;2023-01-26T06:34:39;100791.78;;;14.52;84.20
35419;BME280;21525;41.240;16.500;2023-01-26T06:37:06;100781.31;;;14.52;83.87
35419;BME280;21525;41.240;16.500;2023-01-26T06:39:35;100782.66;;;14.65;84.09
35419;BME280;21525;41.240;16.500;2023-01-26T06:42:02;100782.66;;;14.65;83.88
35419;BME280;21525;41.240;16.500;2023-01-26T06:44:28;100784.19;;;14.43;84.13
35419;BME280;21525;41.240;16.500;2023-01-26T06:46:53;100782.22;;;14.51;84.19
35419;BME280;21525;41.240;16.500;2023-01-26T06:49:19;100785.66;;;14.53;84.75
35419;BME280;21525;41.240;16.500;2023-01-26T06:52:02;100777.09;;;14.47;84.50
35419;BME280;21525;41.240;16.500;2023-01-26T06:54:47;100766.16;;;14.63;84.23
35419;BME280;21525;41.240;16.500;2023-01-26T06:57:52;100759.06;;;14.67;85.29
35419;BME280;21525;41.240;16.500;2023-01-26T07:00:47;100755.81;;;14.88;84.33
35419;BME280;21525;41.240;16.500;2023-01-26T07:03:13;100744.72;;;15.08;82.73
35419;BME280;21525;41.240;16.500;2023-01-26T07:05:38;100756.22;;;15.30;82.51
35419;BME280;21525;41.240;16.500;2023-01-26T07:08:04;100757.09;;;15.03;83.25
35419;BME280;21525;41.240;16.500;2023-01-26T07:10:36;100756.72;;;14.87;83.95
35419;BME280;21525;41.240;16.500;2023-01-26T07:13:03;100747.84;;;15.21;83.11
35419;BME280;21525;41.240;16.500;2023-01-26T07:15:29;100744.22;;;15.25;84.41
35419;BME280;21525;41.240;16.500;2023-01-26T07:17:56;100753.53;;;15.33;82.69
35419;BME280;21525;41.240;16.500;2023-01-26T07:20:22;100759.25;;;15.18;83.02
35419;BME280;21525;41.240;16.500;2023-01-26T07:22:50;100768.16;;;15.12;83.48
35419;BME280;21525;41.240;16.500;2023-01-26T07:25:17;100773.69;;;15.31;83.00
35419;BME280;21525;41.240;16.500;2023-01-26T07:27:43;100766.75;;;15.29;83.74
35419;BME280;21525;41.240;16.500;2023-01-26T07:30:10;100771.06;;;15.31;83.69
35419;BME280;21525;41.240;16.500;2023-01-26T07:32:40;100767.16;;;15.17;84.11
35419;BME280;21525;41.240;16.500;2023-01-26T07:35:06;100751.44;;;15.17;84.59
35419;BME280;21525;41.240;16.500;2023-01-26T07:37:32;100749.41;;;15.26;84.47
35419;BME280;21525;41.240;16.500;2023-01-26T07:39:58;100749.72;;;14.88;87.60
35419;BME280;21525;41.240;16.500;2023-01-26T07:42:24;100748.94;;;15.13;86.82
35419;BME280;21525;41.240;16.500;2023-01-26T07:45:25;100752.78;;;15.02;87.55
35419;BME280;21525;41.240;16.500;2023-01-26T07:47:53;100750.03;;;15.33;86.64
35419;BME280;21525;41.240;16.500;2023-01-26T07:50:19;100745.78;;;15.83;83.99
35419;BME280;21525;41.240;16.500;2023-01-26T07:52:46;100758.63;;;15.38;86.00
35419;BME280;21525;41.240;16.500;2023-01-26T07:55:13;100754.03;;;15.18;86.54
35419;BME280;21525;41.240;16.500;2023-01-26T07:57:39;100753.56;;;15.60;84.67
35419;BME280;21525;41.240;16.500;2023-01-26T08:00:06;100753.84;;;15.51;85.33
35419;BME280;21525;41.240;16.500;2023-01-26T08:02:37;100749.47;;;15.51;88.09
35419;BME280;21525;41.240;16.500;2023-01-26T08:05:03;100757.28;;;15.79;84.80
35419;BME280;21525;41.240;16.500;2023-01-26T08:07:29;100750.94;;;16.11;83.15
35419;BME280;21525;41.240;16.500;2023-01-26T08:09:55;100749.53;;;16.01;82.78
35419;BME280;21525;41.240;16.500;2023-01-26T08:12:21;100761.69;;;15.78;83.73
35419;BME280;21525;41.240;16.500;2023-01-26T08:14:47;100763.44;;;16.28;81.46
35419;BME280;21525;41.240;16.500;2023-01-26T08:17:13;100758.28;;;16.25;81.56
35419;BME280;21525;41.240;16.500;2023-01-26T08:19:42;100752.09;;;16.02;83.73
35419;BME280;21525;41.240;16.500;2023-01-26T08:22:08;100746.84;;;16.02;84.15
35419;BME280;21525;41.240;16.500;2023-01-26T08:24:34;100726.91;;;16.46;80.54
35419;BME280;21525;41.240;16.500;2023-01-26T08:26:59;100728.06;;;16.61;80.62
35419;BME280;21525;41.240;16.500;2023-01-26T08:29:25;100733.22;;;16.41;81.01
35419;BME280;21525;41.240;16.500;2023-01-26T08:31:51;100734.25;;;16.37;81.60
35419;BME280;21525;41.240;16.500;2023-01-26T08:34:18;100733.63;;;16.54;80.75
35419;BME280;21525;41.240;16.500;2023-01-26T08:36:46;100731.00;;;16.54;80.69
35419;BME280;21525;41.240;16.500;2023-01-26T08:39:12;100726.75;;;16.74;80.60
35419;BME280;21525;41.240;16.500;2023-01-26T08:41:38;100732.53;;;16.59;80.67
35419;BME280;21525;41.240;16.500;2023-01-26T08:44:05;100730.47;;;16.91;80.05
35419;BME280;21525;41.240;16.500;2023-01-26T08:46:30;100733.59;;;16.78;80.56
35419;BME280;21525;41.240;16.500;2023-01-26T08:48:56;100731.69;;;16.82;80.02
35419;BME280;21525;41.240;16.500;2023-01-26T08:51:22;100735.25;;;16.81;80.59
35419;BME280;21525;41.240;16.500;2023-01-26T08:53:48;100734.09;;;16.88;80.02
35419;BME280;21525;41.240;16.500;2023-01-26T08:56:14;100729.69;;;16.89;79.31
35419;BME280;21525;41.240;16.500;2023-01-26T08:58:39;100724.19;;;16.95;80.25
35419;BME280;21525;41.240;16.500;2023-01-26T09:01:09;100726.94;;;17.13;78.55
35419;BME280;21525;41.240;16.500;2023-01-26T09:03:35;100722.78;;;17.08;80.14
35419;BME280;21525;41.240;16.500;2023-01-26T09:06:02;100719.50;;;17.03;78.44
35419;BME280;21525;41.240;16.500;2023-01-26T09:08:29;100713.66;;;16.95;79.85
35419;BME280;21525;41.240;16.500;2023-01-26T09:10:55;100725.84;;;16.97;79.46
35419;BME280;21525;41.240;16.500;2023-01-26T09:13:21;100712.47;;;17.03;80.54
35419;BME280;21525;41.240;16.500;2023-01-26T09:15:47;100709.94;;;17.00;78.70
35419;BME280;21525;41.240;16.500;2023-01-26T09:18:12;100701.88;;;17.05;79.29
35419;BME280;21525;41.240;16.500;2023-01-26T09:20:38;100709.94;;;17.00;77.35
35419;BME280;21525;41.240;16.500;2023-01-26T09:23:05;100705.34;;;17.27;77.82
35419;BME280;21525;41.240;16.500;2023-01-26T09:25:35;100708.91;;;16.83;79.90
35419;BME280;21525;41.240;16.500;2023-01-26T09:28:03;100698.72;;;17.19;78.19
35419;BME280;21525;41.240;16.500;2023-01-26T09:30:29;100699.63;;;17.18;78.94
35419;BME280;21525;41.240;16.500;2023-01-26T09:32:58;100697.50;;;17.48;76.91
35419;BME280;21525;41.240;16.500;2023-01-26T09:35:25;100695.88;;;17.23;78.24
35419;BME280;21525;41.240;16.500;2023-01-26T09:37:51;100700.81;;;17.31;76.60
35419;BME280;21525;41.240;16.500;2023-01-26T09:40:22;100699.97;;;17.30;77.88
35419;BME280;21525;41.240;16.500;2023-01-26T09:43:15;100706.69;;;17.37;77.73
35419;BME280;21525;41.240;16.500;2023-01-26T09:46:16;100695.44;;;17.34;76.79
35419;BME280;21525;41.240;16.500;2023-01-26T09:51:19;100682.38;;;17.32;77.75
35419;BME280;21525;41.240;16.500;2023-01-26T09:54:04;100689.47;;;17.08;79.35
35419;BME280;21525;41.240;16.500;2023-01-26T09:56:38;100685.59;;;17.59;75.80
35419;BME280;21525;41.240;16.500;2023-01-26T10:02:14;100681.03;;;17.22;79.37
35419;BME280;21525;41.240;16.500;2023-01-26T10:04:45;100668.03;;;16.75;81.94
35419;BME280;21525;41.240;16.500;2023-01-26T10:07:14;100667.38;;;17.14;80.44
35419;BME280;21525;41.240;16.500;2023-01-26T10:09:49;100661.06;;;17.18;79.09
35419;BME280;21525;41.240;16.500;2023-01-26T10:12:23;100654.53;;;17.49;78.36
35419;BME280;21525;41.240;16.500;2023-01-26T10:14:55;100649.66;;;17.39;78.17
35419;BME280;21525;41.240;16.500;2023-01-26T10:17:37;100648.88;;;17.78;76.70
35419;BME280;21525;41.240;16.500;2023-01-26T10:22:44;100634.81;;;17.79;75.57
35419;BME280;21525;41.240;16.500;2023-01-26T10:25:32;100625.91;;;17.61;77.49
35419;BME280;21525;41.240;16.500;2023-01-26T10:27:58;100609.53;;;18.14;75.62
35419;BME280;21525;41.240;16.500;2023-01-26T10:30:24;100613.50;;;17.85;76.91
35419;BME280;21525;41.240;16.500;2023-01-26T10:32:51;100610.22;;;17.99;75.74
35419;BME280;21525;41.240;16.500;2023-01-26T10:35:22;100612.72;;;17.83;75.42
35419;BME280;21525;41.240;16.500;2023-01-26T10:37:49;100601.59;;;17.76;77.29
35419;BME280;21525;41.240;16.500;2023-01-26T10:40:18;100593.38;;;17.84;77.47
35419;BME280;21525;41.240;16.500;2023-01-26T10:42:58;100600.53;;;17.60;77.84
35419;BME280;21525;41.240;16.500;2023-01-26T10:45:30;100585.41;;;17.86;77.75
35419;BME280;21525;41.240;16.500;2023-01-26T10:48:22;100592.53;;;17.84;75.92
35419;BME280;21525;41.240;16.500;2023-01-26T10:50:52;100585.97;;;17.53;76.19
35419;BME280;21525;41.240;16.500;2023-01-26T10:53:23;100574.06;;;17.65;77.33
35419;BME280;21525;41.240;16.500;2023-01-26T10:56:12;100574.00;;;17.66;78.69
35419;BME280;21525;41.240;16.500;2023-01-26T10:58:59;100579.78;;;17.54;79.68
35419;BME280;21525;41.240;16.500;2023-01-26T11:01:27;100569.50;;;17.68;78.79
35419;BME280;21525;41.240;16.500;2023-01-26T11:04:10;100563.56;;;17.84;78.91
35419;BME280;21525;41.240;16.500;2023-01-26T11:06:37;100561.38;;;17.54;79.58
35419;BME280;21525;41.240;16.500;2023-01-26T11:09:19;100559.56;;;17.94;77.83
35419;BME280;21525;41.240;16.500;2023-01-26T11:12:03;100555.22;;;17.74;78.13
35419;BME280;21525;41.240;16.500;2023-01-26T11:14:31;100553.47;;;17.93;77.31
35419;BME280;21525;41.240;16.500;2023-01-26T11:22:44;100539.03;;;17.83;78.11
35419;BME280;21525;41.240;16.500;2023-01-26T11:25:16;100538.09;;;17.65;78.44
35419;BME280;21525;41.240;16.500;2023-01-26T11:33:59;100521.19;;;17.71;77.01
35419;BME280;21525;41.240;16.500;2023-01-26T11:45:23;100501.81;;;17.91;76.47
35419;BME280;21525;41.240;16.500;2023-01-26T11:50:58;100488.59;;;18.11;75.73
35419;BME280;21525;41.240;16.500;2023-01-26T11:53:39;100502.22;;;18.38;74.24
35419;BME280;21525;41.240;16.500;2023-01-26T11:59:13;100496.16;;;17.81;74.72
35419;BME280;21525;41.240;16.500;2023-01-26T12:01:47;100498.16;;;17.76;77.28
35419;BME280;21525;41.240;16.500;2023-01-26T12:04:21;100495.19;;;17.24;79.88
35419;BME280;21525;41.240;16.500;2023-01-26T12:06:57;100489.66;;;18.07;76.90
35419;BME280;21525;41.240;16.500;2023-01-26T12:09:37;100486.75;;;17.94;76.90
35419;BME280;21525;41.240;16.500;2023-01-26T12:15:16;100479.13;;;17.51;81.50
35419;BME280;21525;41.240;16.500;2023-01-26T12:17:51;100474.22;;;17.62;80.73
35419;BME280;21525;41.240;16.500;2023-01-26T12:20:39;100459.16;;;17.46;82.17
35419;BME280;21525;41.240;16.500;2023-01-26T12:23:24;100465.19;;;17.49;81.84
35419;BME280;21525;41.240;16.500;2023-01-26T12:25:55;100461.13;;;17.41;83.60
35419;BME280;21525;41.240;16.500;2023-01-26T12:31:33;100459.50;;;17.58;83.90
35419;BME280;21525;41.240;16.500;2023-01-26T12:34:01;100454.41;;;17.73;81.56
35419;BME280;21525;41.240;16.500;2023-01-26T12:36:47;100461.53;;;17.32;84.75
35419;BME280;21525;41.240;16.500;2023-01-26T12:39:33;100458.09;;;17.11;86.58
35419;BME280;21525;41.240;16.500;2023-01-26T12:42:19;100451.59;;;17.20;86.73
35419;BME280;21525;41.240;16.500;2023-01-26T12:44:55;100443.91;;;17.34;86.15
35419;BME280;21525;41.240;16.500;2023-01-26T12:50:05;100438.78;;;17.12;87.59
35419;BME280;21525;41.240;16.500;2023-01-26T12:52:41;100440.50;;;17.32;84.90
35419;BME280;21525;41.240;16.500;2023-01-26T12:55:23;100440.94;;;17.03;88.78
35419;BME280;21525;41.240;16.500;2023-01-26T12:57:53;100437.47;;;17.02;89.79
35419;BME280;21525;41.240;16.500;2023-01-26T13:00:28;100436.69;;;17.00;89.04
35419;BME280;21525;41.240;16.500;2023-01-26T13:02:59;100432.09;;;17.24;87.17
35419;BME280;21525;41.240;16.500;2023-01-26T13:05:32;100436.97;;;16.74;90.03
35419;BME280;21525;41.240;16.500;2023-01-26T13:10:52;100428.03;;;16.78;90.77
35419;BME280;21525;41.240;16.500;2023-01-26T13:15:43;100417.41;;;17.20;87.94
35419;BME280;21525;41.240;16.500;2023-01-26T13:18:15;100415.53;;;17.22;86.72
35419;BME280;21525;41.240;16.500;2023-01-26T13:20:47;100419.97;;;16.40;92.74
35419;BME280;21525;41.240;16.500;2023-01-26T13:23:43;100416.72;;;16.13;92.00
35419;BME280;21525;41.240;16.500;2023-01-26T13:28:45;100406.28;;;16.12;93.30
35419;BME280;21525;41.240;16.500;2023-01-26T13:31:12;100403.69;;;17.13;86.31
35419;BME280;21525;41.240;16.500;2023-01-26T13:33:40;100402.06;;;16.91;85.33
35419;BME280;21525;41.240;16.500;2023-01-26T13:36:14;100400.44;;;17.27;84.26
35419;BME280;21525;41.240;16.500;2023-01-26T13:38:43;100396.69;;;16.94;84.93
35419;BME280;21525;41.240;16.500;2023-01-26T13:41:17;100401.22;;;16.50;88.21
35419;BME280;21525;41.240;16.500;2023-01-26T13:44:03;100408.28;;;15.15;98.43
35419;BME280;21525;41.240;16.500;2023-01-26T13:49:59;100406.00;;;15.29;100.00
35419;BME280;21525;41.240;16.500;2023-01-26T13:52:26;100394.28;;;15.39;100.00
35419;BME280;21525;41.240;16.500;2023-01-26T13:54:54;100398.31;;;16.35;100.00
35419;BME280;21525;41.240;16.500;2023-01-26T13:57:24;100408.03;;;15.91;98.13
35419;BME280;21525;41.240;16.500;2023-01-26T13:59:55;100404.81;;;16.05;99.12
35419;BME280;21525;41.240;16.500;2023-01-26T14:02:26;100412.84;;;16.44;90.12
35419;BME280;21525;41.240;16.500;2023-01-26T14:04:54;100403.94;;;15.61;97.11